sensor_id;sensor_type;location;lat;lon;timestamp;P1;durP1;ratioP1;P2;durP2;ratioP2
19867;SDS011;10096;51.112;6.776;2022-09-12T00:01:15;48.28;;;31.00;;
19867;SDS011;10096;51.112;6.776;2022-09-12T00:03:44;60.70;;;39.30;;
19867;SDS011;10096;51.112;6.776;2022-09-12T00:06:14;48.08;;;32.38;;
19867;SDS011;10096;51.112;6.776;2022-09-12T00:08:42;48.33;;;32.70;;
19867;SDS011;10096;51.112;6.776;2022-09-12T00:11:10;46.55;;;32.08;;
19867;SDS011;10096;51.112;6.776;2022-09-12T00:13:38;44.45;;;30.17;;
19867;SDS011;10096;51.112;6.776;2022-09-12T00:16:06;49.80;;;31.52;;
19867;SDS011;10096;51.112;6.776;2022-09-12T00:18:40;45.30;;;30.58;;
19867;SDS011;10096;51.112;6.776;2022-09-12T00:21:08;47.13;;;30.95;;
19867;SDS011;10096;51.112;6.776;2022-09-12T00:23:35;46.05;;;31.95;;
19867;SDS011;10096;51.112;6.776;2022-09-12T00:26:03;50.55;;;32.08;;
19867;SDS011;10096;51.112;6.776;2022-09-12T00:28:32;37.42;;;25.98;;
19867;SDS011;10096;51.112;6.776;2022-09-12T00:31:00;44.17;;;31.73;;
19867;SDS011;10096;51.112;6.776;2022-09-12T00:33:30;50.08;;;30.52;;
19867;SDS011;10096;51.112;6.776;2022-09-12T00:35:58;41.85;;;28.80;;
19867;SDS011;10096;51.112;6.776;2022-09-12T00:38:25;34.50;;;23.98;;
19867;SDS011;10096;51.112;6.776;2022-09-12T00:40:52;41.30;;;28.58;;
19867;SDS011;10096;51.112;6.776;2022-09-12T00:43:32;47.97;;;29.15;;
19867;SDS011;10096;51.112;6.776;2022-09-12T00:46:05;41.63;;;28.88;;
19867;SDS011;10096;51.112;6.776;2022-09-12T00:48:38;41.33;;;29.42;;
19867;SDS011;10096;51.112;6.776;2022-09-12T00:51:10;42.13;;;29.52;;
19867;SDS011;10096;51.112;6.776;2022-09-12T00:53:38;46.35;;;31.65;;
19867;SDS011;10096;51.112;6.776;2022-09-12T00:56:08;46.55;;;29.45;;
19867;SDS011;10096;51.112;6.776;2022-09-12T00:58:38;43.70;;;28.27;;
19867;SDS011;10096;51.112;6.776;2022-09-12T01:01:08;42.25;;;28.42;;
19867;SDS011;10096;51.112;6.776;2022-09-12T01:03:35;42.50;;;29.35;;
19867;SDS011;10096;51.112;6.776;2022-09-12T01:06:04;30.30;;;22.55;;
19867;SDS011;10096;51.112;6.776;2022-09-12T01:08:37;34.25;;;23.77;;
19867;SDS011;10096;51.112;6.776;2022-09-12T01:11:05;28.67;;;19.90;;
19867;SDS011;10096;51.112;6.776;2022-09-12T01:13:34;19.05;;;14.13;;
19867;SDS011;10096;51.112;6.776;2022-09-12T01:16:01;23.33;;;18.70;;
19867;SDS011;10096;51.112;6.776;2022-09-12T01:18:31;26.17;;;20.58;;
19867;SDS011;10096;51.112;6.776;2022-09-12T01:21:21;35.38;;;23.08;;
19867;SDS011;10096;51.112;6.776;2022-09-12T01:33:11;29.90;;;21.35;;
19867;SDS011;10096;51.112;6.776;2022-09-12T01:35:51;24.85;;;18.52;;
19867;SDS011;10096;51.112;6.776;2022-09-12T01:38:30;30.02;;;20.42;;
19867;SDS011;10096;51.112;6.776;2022-09-12T01:41:05;28.55;;;21.30;;
19867;SDS011;10096;51.112;6.776;2022-09-12T01:43:40;43.33;;;26.83;;
19867;SDS011;10096;51.112;6.776;2022-09-12T01:46:15;41.85;;;26.13;;
19867;SDS011;10096;51.112;6.776;2022-09-12T01:48:45;44.25;;;27.50;;
19867;SDS011;10096;51.112;6.776;2022-09-12T01:51:18;48.50;;;29.08;;
19867;SDS011;10096;51.112;6.776;2022-09-12T01:53:49;41.58;;;26.25;;
19867;SDS011;10096;51.112;6.776;2022-09-12T01:56:20;40.55;;;27.00;;
19867;SDS011;10096;51.112;6.776;2022-09-12T01:58:52;38.28;;;25.95;;
19867;SDS011;10096;51.112;6.776;2022-09-12T02:01:25;44.55;;;29.10;;
19867;SDS011;10096;51.112;6.776;2022-09-12T02:03:56;35.33;;;24.63;;
19867;SDS011;10096;51.112;6.776;2022-09-12T02:06:30;43.95;;;28.55;;
19867;SDS011;10096;51.112;6.776;2022-09-12T02:09:01;44.17;;;28.95;;
19867;SDS011;10096;51.112;6.776;2022-09-12T02:11:32;49.20;;;30.40;;
19867;SDS011;10096;51.112;6.776;2022-09-12T02:14:02;45.60;;;30.25;;
19867;SDS011;10096;51.112;6.776;2022-09-12T02:16:38;46.50;;;29.38;;
19867;SDS011;10096;51.112;6.776;2022-09-12T02:19:08;38.05;;;26.98;;
19867;SDS011;10096;51.112;6.776;2022-09-12T02:21:40;35.67;;;24.75;;
19867;SDS011;10096;51.112;6.776;2022-09-12T02:24:13;42.50;;;29.27;;
19867;SDS011;10096;51.112;6.776;2022-09-12T02:26:43;41.08;;;28.02;;
19867;SDS011;10096;51.112;6.776;2022-09-12T02:29:13;41.67;;;27.73;;
19867;SDS011;10096;51.112;6.776;2022-09-12T02:31:43;40.80;;;27.08;;
19867;SDS011;10096;51.112;6.776;2022-09-12T02:34:14;43.33;;;28.73;;
19867;SDS011;10096;51.112;6.776;2022-09-12T02:36:51;44.08;;;27.23;;
19867;SDS011;10096;51.112;6.776;2022-09-12T02:39:24;40.05;;;27.67;;
19867;SDS011;10096;51.112;6.776;2022-09-12T02:41:51;38.35;;;27.08;;
19867;SDS011;10096;51.112;6.776;2022-09-12T02:44:20;43.65;;;27.77;;
19867;SDS011;10096;51.112;6.776;2022-09-12T02:46:51;43.72;;;28.77;;
19867;SDS011;10096;51.112;6.776;2022-09-12T02:49:21;41.17;;;27.80;;
19867;SDS011;10096;51.112;6.776;2022-09-12T02:51:48;42.03;;;27.88;;
19867;SDS011;10096;51.112;6.776;2022-09-12T02:54:16;39.67;;;28.20;;
19867;SDS011;10096;51.112;6.776;2022-09-12T02:56:44;40.90;;;27.85;;
19867;SDS011;10096;51.112;6.776;2022-09-12T02:59:15;47.55;;;30.55;;
19867;SDS011;10096;51.112;6.776;2022-09-12T03:01:51;45.35;;;29.35;;
19867;SDS011;10096;51.112;6.776;2022-09-12T03:04:36;42.67;;;29.88;;
19867;SDS011;10096;51.112;6.776;2022-09-12T03:07:25;41.40;;;26.17;;
19867;SDS011;10096;51.112;6.776;2022-09-12T03:10:06;42.20;;;26.83;;
19867;SDS011;10096;51.112;6.776;2022-09-12T03:12:44;41.65;;;26.63;;
19867;SDS011;10096;51.112;6.776;2022-09-12T03:15:20;41.03;;;26.30;;
19867;SDS011;10096;51.112;6.776;2022-09-12T03:18:03;34.83;;;24.40;;
19867;SDS011;10096;51.112;6.776;2022-09-12T03:20:36;34.92;;;25.52;;
19867;SDS011;10096;51.112;6.776;2022-09-12T03:23:12;36.40;;;26.08;;
19867;SDS011;10096;51.112;6.776;2022-09-12T03:25:50;40.15;;;25.70;;
19867;SDS011;10096;51.112;6.776;2022-09-12T03:28:21;37.17;;;25.75;;
19867;SDS011;10096;51.112;6.776;2022-09-12T03:30:49;35.10;;;25.15;;
19867;SDS011;10096;51.112;6.776;2022-09-12T03:33:20;36.42;;;24.83;;
19867;SDS011;10096;51.112;6.776;2022-09-12T03:35:49;35.95;;;24.80;;
19867;SDS011;10096;51.112;6.776;2022-09-12T03:38:16;38.38;;;25.13;;
19867;SDS011;10096;51.112;6.776;2022-09-12T03:40:44;37.60;;;25.40;;
19867;SDS011;10096;51.112;6.776;2022-09-12T03:43:11;39.40;;;25.30;;
19867;SDS011;10096;51.112;6.776;2022-09-12T03:45:38;33.00;;;24.52;;
19867;SDS011;10096;51.112;6.776;2022-09-12T03:48:05;34.75;;;24.27;;
19867;SDS011;10096;51.112;6.776;2022-09-12T03:50:34;35.03;;;24.70;;
19867;SDS011;10096;51.112;6.776;2022-09-12T03:53:01;35.15;;;24.40;;
19867;SDS011;10096;51.112;6.776;2022-09-12T03:55:29;34.95;;;23.73;;
19867;SDS011;10096;51.112;6.776;2022-09-12T03:57:56;37.88;;;23.55;;
19867;SDS011;10096;51.112;6.776;2022-09-12T04:00:23;32.33;;;23.67;;
19867;SDS011;10096;51.112;6.776;2022-09-12T04:02:53;31.08;;;22.25;;
19867;SDS011;10096;51.112;6.776;2022-09-12T04:05:21;28.83;;;21.55;;
19867;SDS011;10096;51.112;6.776;2022-09-12T04:07:50;34.00;;;23.85;;
19867;SDS011;10096;51.112;6.776;2022-09-12T04:10:17;31.10;;;23.23;;
19867;SDS011;10096;51.112;6.776;2022-09-12T04:12:44;31.77;;;22.75;;
19867;SDS011;10096;51.112;6.776;2022-09-12T04:15:11;35.10;;;23.48;;
19867;SDS011;10096;51.112;6.776;2022-09-12T04:17:38;31.63;;;22.27;;
19867;SDS011;10096;51.112;6.776;2022-09-12T04:20:05;31.90;;;23.45;;
19867;SDS011;10096;51.112;6.776;2022-09-12T04:22:33;33.05;;;21.73;;
19867;SDS011;10096;51.112;6.776;2022-09-12T04:25:01;35.10;;;24.27;;
19867;SDS011;10096;51.112;6.776;2022-09-12T04:27:29;31.95;;;21.20;;
19867;SDS011;10096;51.112;6.776;2022-09-12T04:29:56;31.73;;;22.98;;
19867;SDS011;10096;51.112;6.776;2022-09-12T04:32:24;33.47;;;22.10;;
19867;SDS011;10096;51.112;6.776;2022-09-12T04:34:51;31.27;;;21.63;;
19867;SDS011;10096;51.112;6.776;2022-09-12T04:37:18;30.17;;;21.92;;
19867;SDS011;10096;51.112;6.776;2022-09-12T04:39:46;30.80;;;21.17;;
19867;SDS011;10096;51.112;6.776;2022-09-12T04:42:15;33.28;;;22.27;;
19867;SDS011;10096;51.112;6.776;2022-09-12T04:44:42;30.10;;;21.13;;
19867;SDS011;10096;51.112;6.776;2022-09-12T04:47:09;26.95;;;20.33;;
19867;SDS011;10096;51.112;6.776;2022-09-12T04:49:36;29.35;;;21.23;;
19867;SDS011;10096;51.112;6.776;2022-09-12T04:52:03;29.15;;;21.00;;
19867;SDS011;10096;51.112;6.776;2022-09-12T04:54:30;27.05;;;20.10;;
19867;SDS011;10096;51.112;6.776;2022-09-12T04:56:57;28.52;;;20.23;;
19867;SDS011;10096;51.112;6.776;2022-09-12T04:59:25;24.42;;;19.42;;
19867;SDS011;10096;51.112;6.776;2022-09-12T05:01:52;31.45;;;20.13;;
19867;SDS011;10096;51.112;6.776;2022-09-12T05:04:19;27.38;;;19.42;;
19867;SDS011;10096;51.112;6.776;2022-09-12T05:06:46;26.83;;;19.38;;
19867;SDS011;10096;51.112;6.776;2022-09-12T05:09:14;25.30;;;18.92;;
19867;SDS011;10096;51.112;6.776;2022-09-12T05:11:41;26.45;;;18.35;;
19867;SDS011;10096;51.112;6.776;2022-09-12T05:14:12;24.13;;;18.27;;
19867;SDS011;10096;51.112;6.776;2022-09-12T05:16:40;22.08;;;17.15;;
19867;SDS011;10096;51.112;6.776;2022-09-12T05:19:08;22.23;;;18.33;;
19867;SDS011;10096;51.112;6.776;2022-09-12T05:21:36;23.88;;;18.10;;
19867;SDS011;10096;51.112;6.776;2022-09-12T05:24:03;23.20;;;17.92;;
19867;SDS011;10096;51.112;6.776;2022-09-12T05:26:31;21.98;;;17.85;;
19867;SDS011;10096;51.112;6.776;2022-09-12T05:28:58;22.13;;;16.15;;
19867;SDS011;10096;51.112;6.776;2022-09-12T05:31:25;23.20;;;17.77;;
19867;SDS011;10096;51.112;6.776;2022-09-12T05:33:54;21.25;;;17.35;;
19867;SDS011;10096;51.112;6.776;2022-09-12T05:36:22;21.00;;;17.13;;
19867;SDS011;10096;51.112;6.776;2022-09-12T05:38:50;22.05;;;16.50;;
19867;SDS011;10096;51.112;6.776;2022-09-12T05:41:17;17.77;;;14.07;;
19867;SDS011;10096;51.112;6.776;2022-09-12T05:43:45;16.25;;;14.25;;
19867;SDS011;10096;51.112;6.776;2022-09-12T05:46:17;16.63;;;13.68;;
19867;SDS011;10096;51.112;6.776;2022-09-12T05:48:46;16.40;;;13.60;;
19867;SDS011;10096;51.112;6.776;2022-09-12T05:51:17;15.40;;;13.23;;
19867;SDS011;10096;51.112;6.776;2022-09-12T05:53:46;15.10;;;12.95;;
19867;SDS011;10096;51.112;6.776;2022-09-12T05:56:16;14.65;;;13.07;;
19867;SDS011;10096;51.112;6.776;2022-09-12T05:58:45;15.32;;;13.73;;
19867;SDS011;10096;51.112;6.776;2022-09-12T06:01:14;13.88;;;12.35;;
19867;SDS011;10096;51.112;6.776;2022-09-12T06:03:42;15.35;;;12.95;;
19867;SDS011;10096;51.112;6.776;2022-09-12T06:06:12;13.25;;;11.82;;
19867;SDS011;10096;51.112;6.776;2022-09-12T06:08:43;14.20;;;12.35;;
19867;SDS011;10096;51.112;6.776;2022-09-12T06:11:11;14.35;;;12.77;;
19867;SDS011;10096;51.112;6.776;2022-09-12T06:13:40;13.65;;;12.25;;
19867;SDS011;10096;51.112;6.776;2022-09-12T06:16:09;13.10;;;11.73;;
19867;SDS011;10096;51.112;6.776;2022-09-12T06:18:38;13.88;;;12.48;;
19867;SDS011;10096;51.112;6.776;2022-09-12T06:21:06;14.88;;;11.93;;
19867;SDS011;10096;51.112;6.776;2022-09-12T06:23:34;13.00;;;11.70;;
19867;SDS011;10096;51.112;6.776;2022-09-12T06:26:02;12.82;;;11.52;;
19867;SDS011;10096;51.112;6.776;2022-09-12T06:28:30;12.85;;;11.13;;
19867;SDS011;10096;51.112;6.776;2022-09-12T06:31:00;13.00;;;11.70;;
19867;SDS011;10096;51.112;6.776;2022-09-12T06:33:29;13.23;;;11.75;;
19867;SDS011;10096;51.112;6.776;2022-09-12T06:36:01;14.23;;;11.85;;
19867;SDS011;10096;51.112;6.776;2022-09-12T06:38:30;11.52;;;10.32;;
19867;SDS011;10096;51.112;6.776;2022-09-12T06:40:58;13.20;;;11.80;;
19867;SDS011;10096;51.112;6.776;2022-09-12T06:43:30;12.90;;;11.63;;
19867;SDS011;10096;51.112;6.776;2022-09-12T06:45:57;13.65;;;11.55;;
19867;SDS011;10096;51.112;6.776;2022-09-12T06:48:26;13.23;;;11.82;;
19867;SDS011;10096;51.112;6.776;2022-09-12T06:50:54;14.15;;;12.63;;
19867;SDS011;10096;51.112;6.776;2022-09-12T06:53:22;16.63;;;14.57;;
19867;SDS011;10096;51.112;6.776;2022-09-12T06:55:53;13.98;;;12.52;;
19867;SDS011;10096;51.112;6.776;2022-09-12T06:58:22;13.57;;;11.68;;
19867;SDS011;10096;51.112;6.776;2022-09-12T07:00:50;13.80;;;12.27;;
19867;SDS011;10096;51.112;6.776;2022-09-12T07:03:18;13.60;;;12.18;;
19867;SDS011;10096;51.112;6.776;2022-09-12T07:05:45;13.25;;;11.95;;
19867;SDS011;10096;51.112;6.776;2022-09-12T07:08:12;12.75;;;11.45;;
19867;SDS011;10096;51.112;6.776;2022-09-12T07:10:39;13.80;;;12.35;;
19867;SDS011;10096;51.112;6.776;2022-09-12T07:13:06;13.52;;;12.32;;
19867;SDS011;10096;51.112;6.776;2022-09-12T07:15:33;12.30;;;11.00;;
19867;SDS011;10096;51.112;6.776;2022-09-12T07:18:02;14.13;;;11.90;;
19867;SDS011;10096;51.112;6.776;2022-09-12T07:20:29;12.95;;;11.48;;
19867;SDS011;10096;51.112;6.776;2022-09-12T07:22:58;13.40;;;12.07;;
19867;SDS011;10096;51.112;6.776;2022-09-12T07:25:25;13.57;;;12.20;;
19867;SDS011;10096;51.112;6.776;2022-09-12T07:27:52;18.85;;;17.05;;
19867;SDS011;10096;51.112;6.776;2022-09-12T07:30:19;13.68;;;12.23;;
19867;SDS011;10096;51.112;6.776;2022-09-12T07:32:50;13.85;;;12.45;;
19867;SDS011;10096;51.112;6.776;2022-09-12T07:35:19;13.13;;;11.73;;
19867;SDS011;10096;51.112;6.776;2022-09-12T07:37:46;12.98;;;11.57;;
19867;SDS011;10096;51.112;6.776;2022-09-12T07:40:13;15.55;;;12.48;;
19867;SDS011;10096;51.112;6.776;2022-09-12T07:42:40;14.02;;;12.57;;
19867;SDS011;10096;51.112;6.776;2022-09-12T07:45:07;13.45;;;12.05;;
19867;SDS011;10096;51.112;6.776;2022-09-12T07:47:35;13.27;;;11.68;;
19867;SDS011;10096;51.112;6.776;2022-09-12T07:50:02;13.20;;;11.65;;
19867;SDS011;10096;51.112;6.776;2022-09-12T07:52:30;14.27;;;12.43;;
19867;SDS011;10096;51.112;6.776;2022-09-12T07:54:57;13.13;;;11.80;;
19867;SDS011;10096;51.112;6.776;2022-09-12T07:57:24;14.48;;;12.95;;
19867;SDS011;10096;51.112;6.776;2022-09-12T07:59:51;12.50;;;11.18;;
19867;SDS011;10096;51.112;6.776;2022-09-12T08:02:18;13.27;;;11.88;;
19867;SDS011;10096;51.112;6.776;2022-09-12T08:04:45;14.00;;;11.75;;
19867;SDS011;10096;51.112;6.776;2022-09-12T08:07:13;13.25;;;11.85;;
19867;SDS011;10096;51.112;6.776;2022-09-12T08:09:42;15.55;;;12.73;;
19867;SDS011;10096;51.112;6.776;2022-09-12T08:12:09;13.77;;;12.38;;
19867;SDS011;10096;51.112;6.776;2022-09-12T08:14:36;13.50;;;12.00;;
19867;SDS011;10096;51.112;6.776;2022-09-12T08:17:03;16.20;;;12.80;;
19867;SDS011;10096;51.112;6.776;2022-09-12T08:19:30;14.75;;;11.82;;
19867;SDS011;10096;51.112;6.776;2022-09-12T08:21:59;13.00;;;11.68;;
19867;SDS011;10096;51.112;6.776;2022-09-12T08:24:28;13.63;;;11.63;;
19867;SDS011;10096;51.112;6.776;2022-09-12T08:26:57;13.43;;;12.02;;
19867;SDS011;10096;51.112;6.776;2022-09-12T08:29:24;13.77;;;11.35;;
19867;SDS011;10096;51.112;6.776;2022-09-12T08:31:51;13.38;;;11.98;;
19867;SDS011;10096;51.112;6.776;2022-09-12T08:34:19;13.98;;;12.15;;
19867;SDS011;10096;51.112;6.776;2022-09-12T08:36:46;12.93;;;11.57;;
19867;SDS011;10096;51.112;6.776;2022-09-12T08:39:13;12.02;;;10.77;;
19867;SDS011;10096;51.112;6.776;2022-09-12T08:41:40;13.52;;;12.02;;
19867;SDS011;10096;51.112;6.776;2022-09-12T08:47:22;12.88;;;11.18;;
19867;SDS011;10096;51.112;6.776;2022-09-12T08:49:55;12.35;;;11.07;;
19867;SDS011;10096;51.112;6.776;2022-09-12T08:52:26;12.95;;;11.35;;
19867;SDS011;10096;51.112;6.776;2022-09-12T08:54:58;11.82;;;10.60;;
19867;SDS011;10096;51.112;6.776;2022-09-12T08:57:28;11.65;;;10.18;;
19867;SDS011;10096;51.112;6.776;2022-09-12T08:59:54;11.45;;;10.32;;
19867;SDS011;10096;51.112;6.776;2022-09-12T09:05:17;12.65;;;10.63;;
19867;SDS011;10096;51.112;6.776;2022-09-12T09:08:01;13.45;;;9.70;;
19867;SDS011;10096;51.112;6.776;2022-09-12T09:10:43;11.23;;;10.05;;
19867;SDS011;10096;51.112;6.776;2022-09-12T09:13:16;12.02;;;10.82;;
19867;SDS011;10096;51.112;6.776;2022-09-12T09:16:06;13.15;;;11.00;;
19867;SDS011;10096;51.112;6.776;2022-09-12T09:18:41;10.90;;;9.80;;
19867;SDS011;10096;51.112;6.776;2022-09-12T09:21:11;11.63;;;9.55;;
19867;SDS011;10096;51.112;6.776;2022-09-12T09:23:45;11.60;;;9.95;;
19867;SDS011;10096;51.112;6.776;2022-09-12T09:26:16;10.60;;;9.63;;
19867;SDS011;10096;51.112;6.776;2022-09-12T09:28:51;11.52;;;10.25;;
19867;SDS011;10096;51.112;6.776;2022-09-12T09:31:24;12.55;;;10.55;;
19867;SDS011;10096;51.112;6.776;2022-09-12T09:33:55;11.75;;;10.50;;
19867;SDS011;10096;51.112;6.776;2022-09-12T09:36:25;10.93;;;9.07;;
19867;SDS011;10096;51.112;6.776;2022-09-12T09:39:03;10.52;;;9.48;;
19867;SDS011;10096;51.112;6.776;2022-09-12T09:41:38;9.63;;;8.60;;
19867;SDS011;10096;51.112;6.776;2022-09-12T09:44:15;10.02;;;8.55;;
19867;SDS011;10096;51.112;6.776;2022-09-12T09:46:42;11.77;;;9.32;;
19867;SDS011;10096;51.112;6.776;2022-09-12T09:49:11;9.02;;;8.23;;
19867;SDS011;10096;51.112;6.776;2022-09-12T09:51:40;10.10;;;8.90;;
19867;SDS011;10096;51.112;6.776;2022-09-12T09:54:10;9.55;;;8.48;;
19867;SDS011;10096;51.112;6.776;2022-09-12T09:56:43;10.73;;;9.20;;
19867;SDS011;10096;51.112;6.776;2022-09-12T09:59:11;10.23;;;9.18;;
19867;SDS011;10096;51.112;6.776;2022-09-12T10:01:45;8.52;;;7.47;;
19867;SDS011;10096;51.112;6.776;2022-09-12T10:04:18;7.43;;;6.55;;
19867;SDS011;10096;51.112;6.776;2022-09-12T10:06:49;8.60;;;7.45;;
19867;SDS011;10096;51.112;6.776;2022-09-12T10:09:18;7.38;;;6.40;;
19867;SDS011;10096;51.112;6.776;2022-09-12T10:11:48;7.13;;;6.22;;
19867;SDS011;10096;51.112;6.776;2022-09-12T10:17:23;7.95;;;7.30;;
19867;SDS011;10096;51.112;6.776;2022-09-12T10:19:54;8.82;;;8.02;;
19867;SDS011;10096;51.112;6.776;2022-09-12T10:22:23;8.15;;;7.35;;
19867;SDS011;10096;51.112;6.776;2022-09-12T10:24:53;8.52;;;7.72;;
19867;SDS011;10096;51.112;6.776;2022-09-12T10:27:23;7.75;;;7.03;;
19867;SDS011;10096;51.112;6.776;2022-09-12T10:29:53;6.15;;;5.63;;
19867;SDS011;10096;51.112;6.776;2022-09-12T10:32:26;6.30;;;5.70;;
19867;SDS011;10096;51.112;6.776;2022-09-12T10:35:00;5.97;;;5.40;;
19867;SDS011;10096;51.112;6.776;2022-09-12T10:37:30;6.57;;;5.80;;
19867;SDS011;10096;51.112;6.776;2022-09-12T10:40:00;7.38;;;6.00;;
19867;SDS011;10096;51.112;6.776;2022-09-12T10:42:45;6.95;;;6.30;;
19867;SDS011;10096;51.112;6.776;2022-09-12T10:45:18;6.03;;;5.38;;
19867;SDS011;10096;51.112;6.776;2022-09-12T10:47:47;6.40;;;5.80;;
19867;SDS011;10096;51.112;6.776;2022-09-12T10:50:23;6.53;;;5.93;;
19867;SDS011;10096;51.112;6.776;2022-09-12T10:52:54;6.15;;;5.55;;
19867;SDS011;10096;51.112;6.776;2022-09-12T10:55:37;5.97;;;5.20;;
19867;SDS011;10096;51.112;6.776;2022-09-12T10:58:25;5.60;;;5.05;;
19867;SDS011;10096;51.112;6.776;2022-09-12T11:01:10;6.53;;;5.90;;
19867;SDS011;10096;51.112;6.776;2022-09-12T11:03:51;6.18;;;5.63;;
19867;SDS011;10096;51.112;6.776;2022-09-12T11:06:34;4.82;;;4.38;;
19867;SDS011;10096;51.112;6.776;2022-09-12T11:09:11;6.15;;;5.55;;
19867;SDS011;10096;51.112;6.776;2022-09-12T11:11:49;5.28;;;4.78;;
19867;SDS011;10096;51.112;6.776;2022-09-12T11:17:21;5.88;;;5.38;;
19867;SDS011;10096;51.112;6.776;2022-09-12T11:20:02;5.07;;;4.57;;
19867;SDS011;10096;51.112;6.776;2022-09-12T11:22:59;4.80;;;4.38;;
19867;SDS011;10096;51.112;6.776;2022-09-12T11:25:39;4.78;;;4.40;;
19867;SDS011;10096;51.112;6.776;2022-09-12T11:28:15;5.13;;;4.63;;
19867;SDS011;10096;51.112;6.776;2022-09-12T11:30:54;5.78;;;5.28;;
19867;SDS011;10096;51.112;6.776;2022-09-12T11:33:34;5.38;;;4.88;;
19867;SDS011;10096;51.112;6.776;2022-09-12T11:36:10;5.30;;;4.60;;
19867;SDS011;10096;51.112;6.776;2022-09-12T11:41:40;5.35;;;4.85;;
19867;SDS011;10096;51.112;6.776;2022-09-12T11:44:11;7.15;;;5.18;;
19867;SDS011;10096;51.112;6.776;2022-09-12T11:46:44;5.15;;;4.32;;
19867;SDS011;10096;51.112;6.776;2022-09-12T11:49:16;5.35;;;4.85;;
19867;SDS011;10096;51.112;6.776;2022-09-12T11:52:10;5.15;;;4.75;;
19867;SDS011;10096;51.112;6.776;2022-09-12T11:54:42;4.97;;;4.55;;
19867;SDS011;10096;51.112;6.776;2022-09-12T11:57:13;4.40;;;4.00;;
19867;SDS011;10096;51.112;6.776;2022-09-12T11:59:45;4.60;;;4.20;;
19867;SDS011;10096;51.112;6.776;2022-09-12T12:02:17;4.28;;;3.92;;
19867;SDS011;10096;51.112;6.776;2022-09-12T12:04:58;6.50;;;4.85;;
19867;SDS011;10096;51.112;6.776;2022-09-12T12:07:30;6.18;;;4.32;;
19867;SDS011;10096;51.112;6.776;2022-09-12T12:10:19;4.72;;;4.32;;
19867;SDS011;10096;51.112;6.776;2022-09-12T12:12:48;5.05;;;4.63;;
19867;SDS011;10096;51.112;6.776;2022-09-12T12:15:22;4.95;;;4.55;;
19867;SDS011;10096;51.112;6.776;2022-09-12T12:18:00;5.38;;;4.88;;
19867;SDS011;10096;51.112;6.776;2022-09-12T12:20:30;5.43;;;4.93;;
19867;SDS011;10096;51.112;6.776;2022-09-12T12:22:57;7.57;;;6.28;;
19867;SDS011;10096;51.112;6.776;2022-09-12T12:25:38;6.30;;;5.70;;
19867;SDS011;10096;51.112;6.776;2022-09-12T12:28:21;7.22;;;6.60;;
19867;SDS011;10096;51.112;6.776;2022-09-12T12:31:25;5.80;;;4.85;;
19867;SDS011;10096;51.112;6.776;2022-09-12T12:34:02;4.50;;;4.10;;
19867;SDS011;10096;51.112;6.776;2022-09-12T12:36:47;4.57;;;3.83;;
19867;SDS011;10096;51.112;6.776;2022-09-12T12:48:51;5.78;;;4.70;;
19867;SDS011;10096;51.112;6.776;2022-09-12T12:51:35;4.65;;;4.00;;
19867;SDS011;10096;51.112;6.776;2022-09-12T12:57:29;4.28;;;3.88;;
19867;SDS011;10096;51.112;6.776;2022-09-12T13:00:26;3.95;;;3.65;;
19867;SDS011;10096;51.112;6.776;2022-09-12T13:02:58;4.07;;;3.78;;
19867;SDS011;10096;51.112;6.776;2022-09-12T13:05:28;4.88;;;4.45;;
19867;SDS011;10096;51.112;6.776;2022-09-12T13:08:04;5.05;;;4.47;;
19867;SDS011;10096;51.112;6.776;2022-09-12T13:10:35;4.80;;;4.40;;
19867;SDS011;10096;51.112;6.776;2022-09-12T13:13:04;5.30;;;4.25;;
19867;SDS011;10096;51.112;6.776;2022-09-12T13:15:47;4.57;;;4.18;;
19867;SDS011;10096;51.112;6.776;2022-09-12T13:18:20;4.88;;;4.47;;
19867;SDS011;10096;51.112;6.776;2022-09-12T13:20:53;4.85;;;4.45;;
19867;SDS011;10096;51.112;6.776;2022-09-12T13:23:26;5.35;;;3.58;;
19867;SDS011;10096;51.112;6.776;2022-09-12T13:25:55;4.00;;;3.70;;
19867;SDS011;10096;51.112;6.776;2022-09-12T13:28:24;4.95;;;4.15;;
19867;SDS011;10096;51.112;6.776;2022-09-12T13:30:57;4.50;;;4.10;;
19867;SDS011;10096;51.112;6.776;2022-09-12T13:33:30;7.10;;;5.20;;
19867;SDS011;10096;51.112;6.776;2022-09-12T13:36:08;4.80;;;4.40;;
19867;SDS011;10096;51.112;6.776;2022-09-12T13:38:50;4.55;;;4.15;;
19867;SDS011;10096;51.112;6.776;2022-09-12T13:44:30;4.47;;;4.07;;
19867;SDS011;10096;51.112;6.776;2022-09-12T13:47:07;4.93;;;4.53;;
19867;SDS011;10096;51.112;6.776;2022-09-12T13:49:40;4.90;;;4.13;;
19867;SDS011;10096;51.112;6.776;2022-09-12T13:52:13;5.28;;;4.03;;
19867;SDS011;10096;51.112;6.776;2022-09-12T13:54:45;5.30;;;4.88;;
19867;SDS011;10096;51.112;6.776;2022-09-12T13:57:29;5.13;;;4.72;;
19867;SDS011;10096;51.112;6.776;2022-09-12T13:59:58;4.70;;;4.30;;
19867;SDS011;10096;51.112;6.776;2022-09-12T14:02:33;5.30;;;4.80;;
19867;SDS011;10096;51.112;6.776;2022-09-12T14:05:09;5.53;;;5.05;;
19867;SDS011;10096;51.112;6.776;2022-09-12T14:07:38;7.10;;;5.30;;
19867;SDS011;10096;51.112;6.776;2022-09-12T14:10:20;6.00;;;4.35;;
19867;SDS011;10096;51.112;6.776;2022-09-12T14:12:53;4.88;;;4.47;;
19867;SDS011;10096;51.112;6.776;2022-09-12T14:15:23;4.43;;;4.13;;
19867;SDS011;10096;51.112;6.776;2022-09-12T14:17:54;4.68;;;4.28;;
19867;SDS011;10096;51.112;6.776;2022-09-12T14:20:26;5.40;;;4.82;;
19867;SDS011;10096;51.112;6.776;2022-09-12T14:22:58;4.95;;;4.55;;
19867;SDS011;10096;51.112;6.776;2022-09-12T14:25:28;8.00;;;7.30;;
19867;SDS011;10096;51.112;6.776;2022-09-12T14:28:03;14.48;;;13.13;;
19867;SDS011;10096;51.112;6.776;2022-09-12T14:30:33;4.85;;;4.45;;
19867;SDS011;10096;51.112;6.776;2022-09-12T14:33:17;4.93;;;4.47;;
19867;SDS011;10096;51.112;6.776;2022-09-12T14:35:47;5.03;;;4.38;;
19867;SDS011;10096;51.112;6.776;2022-09-12T14:38:23;5.32;;;4.82;;
19867;SDS011;10096;51.112;6.776;2022-09-12T14:40:58;6.78;;;6.18;;
19867;SDS011;10096;51.112;6.776;2022-09-12T14:43:28;5.50;;;5.10;;
19867;SDS011;10096;51.112;6.776;2022-09-12T14:45:58;7.18;;;4.95;;
19867;SDS011;10096;51.112;6.776;2022-09-12T14:48:27;5.10;;;4.72;;
19867;SDS011;10096;51.112;6.776;2022-09-12T14:50:58;5.22;;;4.72;;
19867;SDS011;10096;51.112;6.776;2022-09-12T14:53:30;4.65;;;3.95;;
19867;SDS011;10096;51.112;6.776;2022-09-12T14:56:04;5.40;;;5.00;;
19867;SDS011;10096;51.112;6.776;2022-09-12T14:58:33;5.32;;;4.93;;
19867;SDS011;10096;51.112;6.776;2022-09-12T15:01:20;5.70;;;5.20;;
19867;SDS011;10096;51.112;6.776;2022-09-12T15:03:53;4.40;;;4.10;;
19867;SDS011;10096;51.112;6.776;2022-09-12T15:09:06;4.50;;;4.13;;
19867;SDS011;10096;51.112;6.776;2022-09-12T15:11:37;4.95;;;4.55;;
19867;SDS011;10096;51.112;6.776;2022-09-12T15:14:05;8.60;;;4.95;;
19867;SDS011;10096;51.112;6.776;2022-09-12T15:16:37;5.57;;;5.07;;
19867;SDS011;10096;51.112;6.776;2022-09-12T15:19:06;3.95;;;3.65;;
19867;SDS011;10096;51.112;6.776;2022-09-12T15:21:33;4.32;;;4.03;;
19867;SDS011;10096;51.112;6.776;2022-09-12T15:24:02;4.65;;;4.35;;
19867;SDS011;10096;51.112;6.776;2022-09-12T15:26:29;4.47;;;4.13;;
19867;SDS011;10096;51.112;6.776;2022-09-12T15:28:56;4.78;;;4.07;;
19867;SDS011;10096;51.112;6.776;2022-09-12T15:31:26;5.35;;;4.95;;
19867;SDS011;10096;51.112;6.776;2022-09-12T15:33:54;4.38;;;4.07;;
19867;SDS011;10096;51.112;6.776;2022-09-12T15:36:22;4.70;;;4.30;;
19867;SDS011;10096;51.112;6.776;2022-09-12T15:38:50;4.35;;;4.05;;